sensor_id;sensor_type;location;lat;lon;timestamp;P1;durP1;ratioP1;P2;durP2;ratioP2
81064;SDS011;70572;40.692;-73.984;2023-07-13T00:01:28;9.05;;;5.57;;
81064;SDS011;70572;40.692;-73.984;2023-07-13T00:03:59;9.98;;;5.22;;
81064;SDS011;70572;40.692;-73.984;2023-07-13T00:06:25;10.27;;;5.25;;
81064;SDS011;70572;40.692;-73.984;2023-07-13T00:08:55;8.68;;;5.25;;
81064;SDS011;70572;40.692;-73.984;2023-07-13T00:11:21;10.25;;;5.75;;
81064;SDS011;70572;40.692;-73.984;2023-07-13T00:13:48;10.82;;;5.68;;
81064;SDS011;70572;40.692;-73.984;2023-07-13T00:16:14;12.18;;;5.38;;
81064;SDS011;70572;40.692;-73.984;2023-07-13T00:18:40;12.13;;;6.28;;
81064;SDS011;70572;40.692;-73.984;2023-07-13T00:21:07;10.18;;;5.38;;
81064;SDS011;70572;40.692;-73.984;2023-07-13T00:23:34;8.52;;;5.18;;
81064;SDS011;70572;40.692;-73.984;2023-07-13T00:26:02;9.10;;;4.88;;
81064;SDS011;70572;40.692;-73.984;2023-07-13T00:28:28;9.23;;;5.38;;
81064;SDS011;70572;40.692;-73.984;2023-07-13T00:30:54;8.63;;;4.82;;
81064;SDS011;70572;40.692;-73.984;2023-07-13T00:33:21;10.15;;;6.18;;
81064;SDS011;70572;40.692;-73.984;2023-07-13T00:35:48;9.73;;;4.90;;
81064;SDS011;70572;40.692;-73.984;2023-07-13T00:38:14;9.60;;;5.50;;
81064;SDS011;70572;40.692;-73.984;2023-07-13T00:40:41;10.85;;;5.43;;
81064;SDS011;70572;40.692;-73.984;2023-07-13T00:43:15;9.93;;;4.70;;
81064;SDS011;70572;40.692;-73.984;2023-07-13T00:48:11;9.52;;;5.68;;
81064;SDS011;70572;40.692;-73.984;2023-07-13T00:50:38;9.45;;;5.03;;
81064;SDS011;70572;40.692;-73.984;2023-07-13T00:53:05;12.15;;;5.47;;
81064;SDS011;70572;40.692;-73.984;2023-07-13T00:55:32;9.90;;;5.45;;
81064;SDS011;70572;40.692;-73.984;2023-07-13T00:57:59;9.32;;;4.95;;
81064;SDS011;70572;40.692;-73.984;2023-07-13T01:00:25;10.90;;;5.13;;
81064;SDS011;70572;40.692;-73.984;2023-07-13T01:02:52;12.32;;;5.13;;
81064;SDS011;70572;40.692;-73.984;2023-07-13T01:05:19;9.80;;;5.40;;
81064;SDS011;70572;40.692;-73.984;2023-07-13T01:07:46;9.80;;;5.07;;
81064;SDS011;70572;40.692;-73.984;2023-07-13T01:10:13;8.60;;;5.22;;
81064;SDS011;70572;40.692;-73.984;2023-07-13T01:12:40;14.98;;;5.28;;
81064;SDS011;70572;40.692;-73.984;2023-07-13T01:15:33;9.40;;;5.47;;
81064;SDS011;70572;40.692;-73.984;2023-07-13T01:17:52;10.23;;;5.10;;
81064;SDS011;70572;40.692;-73.984;2023-07-13T01:20:20;9.82;;;5.88;;
81064;SDS011;70572;40.692;-73.984;2023-07-13T01:22:46;9.85;;;4.65;;
81064;SDS011;70572;40.692;-73.984;2023-07-13T01:25:12;10.07;;;5.47;;
81064;SDS011;70572;40.692;-73.984;2023-07-13T01:27:39;9.35;;;5.20;;
81064;SDS011;70572;40.692;-73.984;2023-07-13T01:30:06;12.95;;;5.75;;
81064;SDS011;70572;40.692;-73.984;2023-07-13T01:32:33;9.25;;;5.47;;
81064;SDS011;70572;40.692;-73.984;2023-07-13T01:34:59;11.00;;;6.03;;
81064;SDS011;70572;40.692;-73.984;2023-07-13T01:37:26;10.75;;;5.45;;
81064;SDS011;70572;40.692;-73.984;2023-07-13T01:39:52;12.45;;;5.82;;
81064;SDS011;70572;40.692;-73.984;2023-07-13T01:42:18;10.45;;;5.65;;
81064;SDS011;70572;40.692;-73.984;2023-07-13T01:44:45;10.38;;;5.65;;
81064;SDS011;70572;40.692;-73.984;2023-07-13T01:47:11;9.90;;;5.80;;
81064;SDS011;70572;40.692;-73.984;2023-07-13T01:49:38;10.82;;;6.05;;
81064;SDS011;70572;40.692;-73.984;2023-07-13T01:52:04;12.15;;;6.22;;
81064;SDS011;70572;40.692;-73.984;2023-07-13T01:54:31;11.25;;;6.20;;
81064;SDS011;70572;40.692;-73.984;2023-07-13T01:56:59;10.13;;;5.78;;
81064;SDS011;70572;40.692;-73.984;2023-07-13T01:59:25;12.63;;;5.60;;
81064;SDS011;70572;40.692;-73.984;2023-07-13T02:01:52;11.80;;;5.95;;
81064;SDS011;70572;40.692;-73.984;2023-07-13T02:04:21;11.18;;;6.57;;
81064;SDS011;70572;40.692;-73.984;2023-07-13T02:06:48;10.10;;;6.05;;
81064;SDS011;70572;40.692;-73.984;2023-07-13T02:09:14;10.75;;;6.07;;
81064;SDS011;70572;40.692;-73.984;2023-07-13T02:11:41;10.65;;;6.35;;
81064;SDS011;70572;40.692;-73.984;2023-07-13T02:14:07;11.88;;;6.43;;
81064;SDS011;70572;40.692;-73.984;2023-07-13T02:16:33;11.02;;;6.60;;
81064;SDS011;70572;40.692;-73.984;2023-07-13T02:18:59;9.55;;;6.00;;
81064;SDS011;70572;40.692;-73.984;2023-07-13T02:21:26;12.80;;;6.90;;
81064;SDS011;70572;40.692;-73.984;2023-07-13T02:23:52;11.00;;;6.72;;
81064;SDS011;70572;40.692;-73.984;2023-07-13T02:26:20;12.13;;;6.97;;
81064;SDS011;70572;40.692;-73.984;2023-07-13T02:28:46;9.80;;;6.10;;
81064;SDS011;70572;40.692;-73.984;2023-07-13T02:31:14;12.05;;;6.05;;
81064;SDS011;70572;40.692;-73.984;2023-07-13T02:33:40;12.40;;;6.80;;
81064;SDS011;70572;40.692;-73.984;2023-07-13T02:36:07;10.13;;;6.22;;
81064;SDS011;70572;40.692;-73.984;2023-07-13T02:38:34;11.02;;;6.60;;
81064;SDS011;70572;40.692;-73.984;2023-07-13T02:41:02;10.63;;;6.43;;
81064;SDS011;70572;40.692;-73.984;2023-07-13T02:43:28;10.55;;;5.97;;
81064;SDS011;70572;40.692;-73.984;2023-07-13T02:45:55;11.10;;;6.90;;
81064;SDS011;70572;40.692;-73.984;2023-07-13T02:48:21;12.90;;;6.68;;
81064;SDS011;70572;40.692;-73.984;2023-07-13T02:50:48;11.45;;;6.93;;
81064;SDS011;70572;40.692;-73.984;2023-07-13T02:53:14;14.63;;;7.78;;
81064;SDS011;70572;40.692;-73.984;2023-07-13T02:55:41;11.98;;;7.07;;
81064;SDS011;70572;40.692;-73.984;2023-07-13T02:58:12;13.20;;;7.47;;
81064;SDS011;70572;40.692;-73.984;2023-07-13T03:00:48;14.57;;;7.55;;
81064;SDS011;70572;40.692;-73.984;2023-07-13T03:03:15;11.35;;;7.15;;
81064;SDS011;70572;40.692;-73.984;2023-07-13T03:05:42;13.55;;;7.18;;
81064;SDS011;70572;40.692;-73.984;2023-07-13T03:08:09;11.30;;;7.00;;
81064;SDS011;70572;40.692;-73.984;2023-07-13T03:10:35;13.20;;;6.65;;
81064;SDS011;70572;40.692;-73.984;2023-07-13T03:13:02;13.90;;;7.47;;
81064;SDS011;70572;40.692;-73.984;2023-07-13T03:15:29;10.60;;;6.68;;
81064;SDS011;70572;40.692;-73.984;2023-07-13T03:17:55;11.50;;;6.80;;
81064;SDS011;70572;40.692;-73.984;2023-07-13T03:20:21;12.85;;;6.90;;
81064;SDS011;70572;40.692;-73.984;2023-07-13T03:22:48;11.40;;;6.68;;
81064;SDS011;70572;40.692;-73.984;2023-07-13T03:25:14;12.20;;;6.20;;
81064;SDS011;70572;40.692;-73.984;2023-07-13T03:27:40;14.05;;;7.50;;
81064;SDS011;70572;40.692;-73.984;2023-07-13T03:30:07;11.18;;;7.43;;
81064;SDS011;70572;40.692;-73.984;2023-07-13T03:32:33;12.70;;;7.13;;
81064;SDS011;70572;40.692;-73.984;2023-07-13T03:35:00;14.25;;;7.13;;
81064;SDS011;70572;40.692;-73.984;2023-07-13T03:37:26;12.35;;;7.20;;
81064;SDS011;70572;40.692;-73.984;2023-07-13T03:39:53;11.75;;;7.05;;
81064;SDS011;70572;40.692;-73.984;2023-07-13T03:42:19;11.23;;;6.63;;
81064;SDS011;70572;40.692;-73.984;2023-07-13T03:44:46;13.90;;;7.53;;
81064;SDS011;70572;40.692;-73.984;2023-07-13T03:47:17;14.63;;;8.02;;
81064;SDS011;70572;40.692;-73.984;2023-07-13T03:49:44;12.40;;;7.30;;
81064;SDS011;70572;40.692;-73.984;2023-07-13T03:52:11;13.00;;;7.68;;
81064;SDS011;70572;40.692;-73.984;2023-07-13T03:54:37;12.10;;;7.57;;
81064;SDS011;70572;40.692;-73.984;2023-07-13T03:57:04;11.52;;;7.28;;
81064;SDS011;70572;40.692;-73.984;2023-07-13T03:59:30;12.52;;;7.63;;
81064;SDS011;70572;40.692;-73.984;2023-07-13T04:01:57;13.77;;;7.30;;
81064;SDS011;70572;40.692;-73.984;2023-07-13T04:04:23;13.75;;;8.10;;
81064;SDS011;70572;40.692;-73.984;2023-07-13T04:06:49;15.35;;;7.95;;
81064;SDS011;70572;40.692;-73.984;2023-07-13T04:09:17;11.68;;;7.60;;
81064;SDS011;70572;40.692;-73.984;2023-07-13T04:11:44;12.60;;;7.40;;
81064;SDS011;70572;40.692;-73.984;2023-07-13T04:14:10;13.57;;;7.03;;
81064;SDS011;70572;40.692;-73.984;2023-07-13T04:16:36;11.68;;;7.47;;
81064;SDS011;70572;40.692;-73.984;2023-07-13T04:19:03;11.93;;;7.57;;
81064;SDS011;70572;40.692;-73.984;2023-07-13T04:21:30;11.73;;;7.45;;
81064;SDS011;70572;40.692;-73.984;2023-07-13T04:23:57;11.13;;;6.55;;
81064;SDS011;70572;40.692;-73.984;2023-07-13T04:26:24;13.05;;;7.00;;
81064;SDS011;70572;40.692;-73.984;2023-07-13T04:28:50;11.88;;;6.75;;
81064;SDS011;70572;40.692;-73.984;2023-07-13T04:31:20;12.23;;;7.22;;
81064;SDS011;70572;40.692;-73.984;2023-07-13T04:33:47;12.02;;;7.20;;
81064;SDS011;70572;40.692;-73.984;2023-07-13T04:36:13;11.23;;;6.47;;
81064;SDS011;70572;40.692;-73.984;2023-07-13T04:38:40;10.80;;;6.78;;
81064;SDS011;70572;40.692;-73.984;2023-07-13T04:41:07;12.25;;;6.75;;
81064;SDS011;70572;40.692;-73.984;2023-07-13T04:43:33;13.15;;;7.15;;
81064;SDS011;70572;40.692;-73.984;2023-07-13T04:46:04;11.55;;;7.28;;
81064;SDS011;70572;40.692;-73.984;2023-07-13T04:48:30;11.13;;;6.82;;
81064;SDS011;70572;40.692;-73.984;2023-07-13T04:50:57;10.48;;;6.97;;
81064;SDS011;70572;40.692;-73.984;2023-07-13T04:53:33;13.95;;;7.53;;
81064;SDS011;70572;40.692;-73.984;2023-07-13T04:56:00;11.57;;;7.53;;
81064;SDS011;70572;40.692;-73.984;2023-07-13T04:58:26;10.98;;;6.80;;
81064;SDS011;70572;40.692;-73.984;2023-07-13T05:00:53;11.60;;;6.95;;
81064;SDS011;70572;40.692;-73.984;2023-07-13T05:03:25;11.20;;;7.47;;
81064;SDS011;70572;40.692;-73.984;2023-07-13T05:05:55;11.38;;;6.93;;
81064;SDS011;70572;40.692;-73.984;2023-07-13T05:08:21;12.43;;;7.18;;
81064;SDS011;70572;40.692;-73.984;2023-07-13T05:10:48;10.13;;;6.57;;
81064;SDS011;70572;40.692;-73.984;2023-07-13T05:13:14;11.82;;;6.93;;
81064;SDS011;70572;40.692;-73.984;2023-07-13T05:15:40;10.52;;;6.93;;
81064;SDS011;70572;40.692;-73.984;2023-07-13T05:18:06;12.45;;;6.90;;
81064;SDS011;70572;40.692;-73.984;2023-07-13T05:20:33;10.98;;;7.22;;
81064;SDS011;70572;40.692;-73.984;2023-07-13T05:22:59;11.63;;;6.25;;
81064;SDS011;70572;40.692;-73.984;2023-07-13T05:25:25;11.30;;;7.03;;
81064;SDS011;70572;40.692;-73.984;2023-07-13T05:27:52;10.07;;;6.70;;
81064;SDS011;70572;40.692;-73.984;2023-07-13T05:30:18;17.73;;;6.95;;
81064;SDS011;70572;40.692;-73.984;2023-07-13T05:32:44;9.95;;;6.57;;
81064;SDS011;70572;40.692;-73.984;2023-07-13T05:35:11;10.27;;;6.53;;
81064;SDS011;70572;40.692;-73.984;2023-07-13T05:37:37;12.45;;;6.93;;
81064;SDS011;70572;40.692;-73.984;2023-07-13T05:40:04;11.00;;;7.32;;
81064;SDS011;70572;40.692;-73.984;2023-07-13T05:42:30;14.82;;;7.63;;
81064;SDS011;70572;40.692;-73.984;2023-07-13T05:44:57;11.57;;;6.90;;
81064;SDS011;70572;40.692;-73.984;2023-07-13T05:47:23;12.50;;;7.05;;
81064;SDS011;70572;40.692;-73.984;2023-07-13T05:49:53;13.45;;;7.38;;
81064;SDS011;70572;40.692;-73.984;2023-07-13T05:52:19;10.32;;;7.05;;
81064;SDS011;70572;40.692;-73.984;2023-07-13T05:54:45;10.75;;;7.43;;
81064;SDS011;70572;40.692;-73.984;2023-07-13T05:57:11;10.68;;;7.10;;
81064;SDS011;70572;40.692;-73.984;2023-07-13T05:59:38;14.13;;;7.70;;
81064;SDS011;70572;40.692;-73.984;2023-07-13T06:02:05;14.10;;;7.00;;
81064;SDS011;70572;40.692;-73.984;2023-07-13T06:04:31;12.90;;;7.78;;
81064;SDS011;70572;40.692;-73.984;2023-07-13T06:06:57;11.00;;;7.20;;
81064;SDS011;70572;40.692;-73.984;2023-07-13T06:09:25;11.20;;;7.20;;
81064;SDS011;70572;40.692;-73.984;2023-07-13T06:11:51;12.10;;;7.13;;
81064;SDS011;70572;40.692;-73.984;2023-07-13T06:14:17;12.48;;;7.13;;
81064;SDS011;70572;40.692;-73.984;2023-07-13T06:16:44;11.70;;;7.10;;
81064;SDS011;70572;40.692;-73.984;2023-07-13T06:19:10;11.32;;;6.95;;
81064;SDS011;70572;40.692;-73.984;2023-07-13T06:21:37;13.25;;;7.22;;
81064;SDS011;70572;40.692;-73.984;2023-07-13T06:24:06;14.18;;;7.82;;
81064;SDS011;70572;40.692;-73.984;2023-07-13T06:26:32;11.70;;;7.18;;
81064;SDS011;70572;40.692;-73.984;2023-07-13T06:28:58;12.18;;;7.53;;
81064;SDS011;70572;40.692;-73.984;2023-07-13T06:31:25;12.30;;;7.30;;
81064;SDS011;70572;40.692;-73.984;2023-07-13T06:33:51;12.13;;;7.15;;
81064;SDS011;70572;40.692;-73.984;2023-07-13T06:36:18;13.90;;;8.25;;
81064;SDS011;70572;40.692;-73.984;2023-07-13T06:38:44;13.07;;;7.50;;
81064;SDS011;70572;40.692;-73.984;2023-07-13T06:41:11;12.13;;;7.43;;
81064;SDS011;70572;40.692;-73.984;2023-07-13T06:43:37;11.82;;;7.53;;
81064;SDS011;70572;40.692;-73.984;2023-07-13T06:46:03;11.95;;;7.40;;
81064;SDS011;70572;40.692;-73.984;2023-07-13T06:48:30;14.68;;;7.80;;
81064;SDS011;70572;40.692;-73.984;2023-07-13T06:50:56;12.20;;;7.30;;
81064;SDS011;70572;40.692;-73.984;2023-07-13T06:53:22;11.63;;;7.32;;
81064;SDS011;70572;40.692;-73.984;2023-07-13T06:55:49;11.32;;;7.68;;
81064;SDS011;70572;40.692;-73.984;2023-07-13T06:58:17;12.98;;;7.55;;
81064;SDS011;70572;40.692;-73.984;2023-07-13T07:00:43;13.45;;;7.70;;
81064;SDS011;70572;40.692;-73.984;2023-07-13T07:03:09;12.98;;;8.13;;
81064;SDS011;70572;40.692;-73.984;2023-07-13T07:05:36;13.07;;;8.05;;
81064;SDS011;70572;40.692;-73.984;2023-07-13T07:08:02;13.85;;;8.45;;
81064;SDS011;70572;40.692;-73.984;2023-07-13T07:10:29;12.85;;;7.82;;
81064;SDS011;70572;40.692;-73.984;2023-07-13T07:12:56;11.48;;;7.35;;
81064;SDS011;70572;40.692;-73.984;2023-07-13T07:15:22;11.20;;;7.57;;
81064;SDS011;70572;40.692;-73.984;2023-07-13T07:17:48;10.38;;;7.22;;
81064;SDS011;70572;40.692;-73.984;2023-07-13T07:20:15;11.75;;;8.40;;
81064;SDS011;70572;40.692;-73.984;2023-07-13T07:22:41;11.90;;;8.02;;
81064;SDS011;70572;40.692;-73.984;2023-07-13T07:25:08;12.23;;;8.02;;
81064;SDS011;70572;40.692;-73.984;2023-07-13T07:27:34;12.07;;;7.97;;
81064;SDS011;70572;40.692;-73.984;2023-07-13T07:30:00;13.88;;;7.95;;
81064;SDS011;70572;40.692;-73.984;2023-07-13T07:32:28;16.30;;;7.97;;
81064;SDS011;70572;40.692;-73.984;2023-07-13T07:34:55;12.30;;;7.95;;
81064;SDS011;70572;40.692;-73.984;2023-07-13T07:37:22;12.52;;;8.23;;
81064;SDS011;70572;40.692;-73.984;2023-07-13T07:39:48;14.63;;;7.88;;
81064;SDS011;70572;40.692;-73.984;2023-07-13T07:42:15;13.70;;;7.75;;
81064;SDS011;70572;40.692;-73.984;2023-07-13T07:44:41;14.05;;;9.20;;
81064;SDS011;70572;40.692;-73.984;2023-07-13T07:47:08;11.85;;;7.70;;
81064;SDS011;70572;40.692;-73.984;2023-07-13T07:49:36;12.77;;;8.40;;
81064;SDS011;70572;40.692;-73.984;2023-07-13T07:52:05;11.95;;;8.40;;
81064;SDS011;70572;40.692;-73.984;2023-07-13T07:54:31;18.92;;;8.60;;
81064;SDS011;70572;40.692;-73.984;2023-07-13T07:56:58;13.35;;;7.95;;
81064;SDS011;70572;40.692;-73.984;2023-07-13T07:59:27;15.27;;;8.48;;
81064;SDS011;70572;40.692;-73.984;2023-07-13T08:01:53;11.68;;;7.38;;
81064;SDS011;70572;40.692;-73.984;2023-07-13T08:04:19;13.02;;;7.80;;
81064;SDS011;70572;40.692;-73.984;2023-07-13T08:06:45;14.02;;;8.15;;
81064;SDS011;70572;40.692;-73.984;2023-07-13T08:09:12;12.35;;;7.70;;
81064;SDS011;70572;40.692;-73.984;2023-07-13T08:11:40;12.38;;;8.00;;
81064;SDS011;70572;40.692;-73.984;2023-07-13T08:14:07;12.82;;;7.53;;
81064;SDS011;70572;40.692;-73.984;2023-07-13T08:16:34;12.48;;;8.50;;
81064;SDS011;70572;40.692;-73.984;2023-07-13T08:19:00;12.23;;;7.72;;
81064;SDS011;70572;40.692;-73.984;2023-07-13T08:21:27;11.27;;;7.40;;
81064;SDS011;70572;40.692;-73.984;2023-07-13T08:23:53;12.25;;;7.70;;
81064;SDS011;70572;40.692;-73.984;2023-07-13T08:26:20;10.93;;;7.72;;
81064;SDS011;70572;40.692;-73.984;2023-07-13T08:28:47;11.90;;;7.82;;
81064;SDS011;70572;40.692;-73.984;2023-07-13T08:31:13;14.02;;;8.00;;
81064;SDS011;70572;40.692;-73.984;2023-07-13T08:33:40;12.80;;;8.25;;
81064;SDS011;70572;40.692;-73.984;2023-07-13T08:36:06;13.63;;;8.02;;
81064;SDS011;70572;40.692;-73.984;2023-07-13T08:38:33;11.35;;;7.82;;
81064;SDS011;70572;40.692;-73.984;2023-07-13T08:41:01;10.57;;;7.30;;
81064;SDS011;70572;40.692;-73.984;2023-07-13T08:43:29;11.13;;;7.63;;
81064;SDS011;70572;40.692;-73.984;2023-07-13T08:46:02;12.65;;;8.02;;
81064;SDS011;70572;40.692;-73.984;2023-07-13T08:48:41;10.93;;;7.93;;
81064;SDS011;70572;40.692;-73.984;2023-07-13T08:53:40;11.77;;;8.25;;
81064;SDS011;70572;40.692;-73.984;2023-07-13T08:56:22;11.90;;;7.80;;
81064;SDS011;70572;40.692;-73.984;2023-07-13T08:58:50;13.60;;;8.30;;
81064;SDS011;70572;40.692;-73.984;2023-07-13T09:07:14;13.15;;;8.40;;
81064;SDS011;70572;40.692;-73.984;2023-07-13T09:09:52;12.40;;;8.52;;
81064;SDS011;70572;40.692;-73.984;2023-07-13T09:14:51;12.52;;;7.70;;
81064;SDS011;70572;40.692;-73.984;2023-07-13T09:17:41;12.15;;;7.93;;
81064;SDS011;70572;40.692;-73.984;2023-07-13T09:20:29;11.68;;;8.32;;
81064;SDS011;70572;40.692;-73.984;2023-07-13T09:22:52;16.00;;;9.20;;
81064;SDS011;70572;40.692;-73.984;2023-07-13T09:25:52;13.73;;;8.48;;
81064;SDS011;70572;40.692;-73.984;2023-07-13T09:28:22;12.93;;;9.07;;
81064;SDS011;70572;40.692;-73.984;2023-07-13T09:33:16;14.10;;;8.57;;
81064;SDS011;70572;40.692;-73.984;2023-07-13T09:35:44;12.13;;;8.40;;
81064;SDS011;70572;40.692;-73.984;2023-07-13T09:40:43;12.55;;;8.73;;
81064;SDS011;70572;40.692;-73.984;2023-07-13T09:43:11;12.82;;;8.63;;
81064;SDS011;70572;40.692;-73.984;2023-07-13T09:45:39;13.48;;;9.00;;
81064;SDS011;70572;40.692;-73.984;2023-07-13T09:48:07;12.52;;;8.90;;
81064;SDS011;70572;40.692;-73.984;2023-07-13T09:50:34;11.88;;;8.38;;
81064;SDS011;70572;40.692;-73.984;2023-07-13T09:53:00;13.07;;;8.45;;
81064;SDS011;70572;40.692;-73.984;2023-07-13T09:58:19;12.73;;;8.52;;
81064;SDS011;70572;40.692;-73.984;2023-07-13T10:00:58;14.48;;;9.23;;
81064;SDS011;70572;40.692;-73.984;2023-07-13T10:03:26;11.85;;;8.20;;
81064;SDS011;70572;40.692;-73.984;2023-07-13T10:05:53;12.88;;;9.20;;
81064;SDS011;70572;40.692;-73.984;2023-07-13T10:08:26;11.95;;;8.25;;
81064;SDS011;70572;40.692;-73.984;2023-07-13T10:10:54;13.43;;;9.48;;
81064;SDS011;70572;40.692;-73.984;2023-07-13T10:13:44;14.98;;;8.73;;
81064;SDS011;70572;40.692;-73.984;2023-07-13T10:16:09;16.33;;;9.13;;
81064;SDS011;70572;40.692;-73.984;2023-07-13T10:18:42;13.00;;;8.93;;
81064;SDS011;70572;40.692;-73.984;2023-07-13T10:21:11;11.73;;;8.32;;
81064;SDS011;70572;40.692;-73.984;2023-07-13T10:23:38;14.25;;;9.27;;
81064;SDS011;70572;40.692;-73.984;2023-07-13T10:26:05;15.52;;;9.43;;
81064;SDS011;70572;40.692;-73.984;2023-07-13T10:28:36;14.73;;;9.15;;
81064;SDS011;70572;40.692;-73.984;2023-07-13T10:31:04;13.75;;;8.98;;
81064;SDS011;70572;40.692;-73.984;2023-07-13T10:33:35;14.25;;;8.95;;
81064;SDS011;70572;40.692;-73.984;2023-07-13T10:38:40;13.57;;;8.70;;
81064;SDS011;70572;40.692;-73.984;2023-07-13T10:41:08;15.02;;;10.02;;
81064;SDS011;70572;40.692;-73.984;2023-07-13T10:43:38;15.20;;;9.55;;
81064;SDS011;70572;40.692;-73.984;2023-07-13T10:46:07;12.80;;;9.05;;
81064;SDS011;70572;40.692;-73.984;2023-07-13T10:48:34;12.80;;;8.55;;
81064;SDS011;70572;40.692;-73.984;2023-07-13T10:51:03;13.27;;;8.45;;
81064;SDS011;70572;40.692;-73.984;2023-07-13T10:53:32;13.65;;;8.88;;
81064;SDS011;70572;40.692;-73.984;2023-07-13T10:56:00;15.88;;;10.23;;
81064;SDS011;70572;40.692;-73.984;2023-07-13T10:58:37;13.32;;;9.55;;
81064;SDS011;70572;40.692;-73.984;2023-07-13T11:01:14;12.32;;;9.02;;
81064;SDS011;70572;40.692;-73.984;2023-07-13T11:03:53;13.27;;;8.95;;
81064;SDS011;70572;40.692;-73.984;2023-07-13T11:06:32;15.15;;;9.45;;
81064;SDS011;70572;40.692;-73.984;2023-07-13T11:11:44;13.00;;;8.52;;
81064;SDS011;70572;40.692;-73.984;2023-07-13T11:16:46;12.52;;;9.02;;
81064;SDS011;70572;40.692;-73.984;2023-07-13T11:24:28;18.40;;;10.93;;
81064;SDS011;70572;40.692;-73.984;2023-07-13T11:26:55;15.93;;;9.93;;
81064;SDS011;70572;40.692;-73.984;2023-07-13T11:29:24;18.10;;;11.98;;
81064;SDS011;70572;40.692;-73.984;2023-07-13T11:31:55;13.98;;;9.38;;
81064;SDS011;70572;40.692;-73.984;2023-07-13T11:34:40;14.10;;;8.98;;
81064;SDS011;70572;40.692;-73.984;2023-07-13T11:37:10;13.05;;;8.95;;
81064;SDS011;70572;40.692;-73.984;2023-07-13T11:39:40;13.95;;;9.13;;
81064;SDS011;70572;40.692;-73.984;2023-07-13T11:42:12;13.40;;;8.10;;
81064;SDS011;70572;40.692;-73.984;2023-07-13T11:44:42;12.93;;;8.55;;
81064;SDS011;70572;40.692;-73.984;2023-07-13T11:47:14;14.68;;;8.68;;
81064;SDS011;70572;40.692;-73.984;2023-07-13T11:49:43;15.48;;;8.77;;
81064;SDS011;70572;40.692;-73.984;2023-07-13T11:52:13;16.15;;;9.48;;
81064;SDS011;70572;40.692;-73.984;2023-07-13T11:54:56;14.85;;;9.15;;
81064;SDS011;70572;40.692;-73.984;2023-07-13T11:57:30;14.20;;;9.00;;
81064;SDS011;70572;40.692;-73.984;2023-07-13T11:59:59;13.13;;;8.95;;
81064;SDS011;70572;40.692;-73.984;2023-07-13T12:02:33;14.88;;;8.63;;
81064;SDS011;70572;40.692;-73.984;2023-07-13T12:05:00;14.20;;;9.15;;
81064;SDS011;70572;40.692;-73.984;2023-07-13T12:07:29;15.55;;;9.85;;
81064;SDS011;70572;40.692;-73.984;2023-07-13T12:12:34;15.57;;;9.52;;
81064;SDS011;70572;40.692;-73.984;2023-07-13T12:15:01;13.60;;;9.30;;
81064;SDS011;70572;40.692;-73.984;2023-07-13T12:17:31;13.35;;;8.98;;
81064;SDS011;70572;40.692;-73.984;2023-07-13T12:19:59;14.43;;;9.38;;
81064;SDS011;70572;40.692;-73.984;2023-07-13T12:22:25;14.35;;;8.98;;
81064;SDS011;70572;40.692;-73.984;2023-07-13T12:24:52;15.45;;;9.50;;
81064;SDS011;70572;40.692;-73.984;2023-07-13T12:27:20;17.17;;;9.05;;
81064;SDS011;70572;40.692;-73.984;2023-07-13T12:30:04;15.00;;;8.93;;
81064;SDS011;70572;40.692;-73.984;2023-07-13T12:32:31;15.75;;;9.98;;
81064;SDS011;70572;40.692;-73.984;2023-07-13T12:35:07;15.43;;;9.13;;
81064;SDS011;70572;40.692;-73.984;2023-07-13T12:37:34;16.92;;;9.00;;
81064;SDS011;70572;40.692;-73.984;2023-07-13T12:40:00;14.38;;;8.85;;
81064;SDS011;70572;40.692;-73.984;2023-07-13T12:42:31;13.02;;;8.82;;
81064;SDS011;70572;40.692;-73.984;2023-07-13T12:45:01;13.68;;;8.77;;
81064;SDS011;70572;40.692;-73.984;2023-07-13T12:47:29;12.65;;;8.65;;
81064;SDS011;70572;40.692;-73.984;2023-07-13T12:49:58;13.45;;;8.50;;
81064;SDS011;70572;40.692;-73.984;2023-07-13T12:52:33;14.52;;;7.88;;
81064;SDS011;70572;40.692;-73.984;2023-07-13T12:55:04;14.43;;;8.18;;
81064;SDS011;70572;40.692;-73.984;2023-07-13T12:57:30;11.75;;;8.52;;
81064;SDS011;70572;40.692;-73.984;2023-07-13T12:59:57;13.65;;;8.52;;
81064;SDS011;70572;40.692;-73.984;2023-07-13T13:04:49;13.40;;;8.27;;
81064;SDS011;70572;40.692;-73.984;2023-07-13T13:07:16;11.73;;;8.05;;
81064;SDS011;70572;40.692;-73.984;2023-07-13T13:09:45;13.55;;;8.98;;
81064;SDS011;70572;40.692;-73.984;2023-07-13T13:12:12;18.58;;;12.93;;
81064;SDS011;70572;40.692;-73.984;2023-07-13T13:14:39;14.45;;;9.68;;
81064;SDS011;70572;40.692;-73.984;2023-07-13T13:17:11;15.88;;;8.35;;
81064;SDS011;70572;40.692;-73.984;2023-07-13T13:19:41;12.10;;;8.68;;
81064;SDS011;70572;40.692;-73.984;2023-07-13T13:22:07;13.68;;;8.23;;
81064;SDS011;70572;40.692;-73.984;2023-07-13T13:24:34;13.65;;;7.90;;
81064;SDS011;70572;40.692;-73.984;2023-07-13T13:27:00;13.63;;;7.90;;
81064;SDS011;70572;40.692;-73.984;2023-07-13T13:29:27;11.38;;;8.05;;
81064;SDS011;70572;40.692;-73.984;2023-07-13T13:31:54;12.57;;;8.32;;
81064;SDS011;70572;40.692;-73.984;2023-07-13T13:34:21;32.35;;;11.82;;
81064;SDS011;70572;40.692;-73.984;2023-07-13T13:36:52;18.20;;;9.18;;
81064;SDS011;70572;40.692;-73.984;2023-07-13T13:39:22;15.90;;;8.00;;
81064;SDS011;70572;40.692;-73.984;2023-07-13T13:41:49;10.18;;;7.30;;
81064;SDS011;70572;40.692;-73.984;2023-07-13T13:44:16;11.68;;;7.97;;
81064;SDS011;70572;40.692;-73.984;2023-07-13T13:46:44;14.73;;;8.20;;
81064;SDS011;70572;40.692;-73.984;2023-07-13T13:49:16;11.50;;;8.25;;
81064;SDS011;70572;40.692;-73.984;2023-07-13T13:54:13;11.65;;;7.97;;
81064;SDS011;70572;40.692;-73.984;2023-07-13T13:56:41;12.18;;;8.32;;
81064;SDS011;70572;40.692;-73.984;2023-07-13T13:59:08;13.63;;;7.45;;
81064;SDS011;70572;40.692;-73.984;2023-07-13T14:01:34;12.35;;;8.50;;
81064;SDS011;70572;40.692;-73.984;2023-07-13T14:04:01;12.05;;;8.23;;
81064;SDS011;70572;40.692;-73.984;2023-07-13T14:06:27;10.43;;;7.47;;
81064;SDS011;70572;40.692;-73.984;2023-07-13T14:08:54;13.07;;;8.27;;
81064;SDS011;70572;40.692;-73.984;2023-07-13T14:11:20;12.65;;;8.55;;
81064;SDS011;70572;40.692;-73.984;2023-07-13T14:16:17;13.50;;;7.82;;
81064;SDS011;70572;40.692;-73.984;2023-07-13T14:18:44;12.45;;;8.63;;
81064;SDS011;70572;40.692;-73.984;2023-07-13T14:21:14;12.05;;;7.80;;
81064;SDS011;70572;40.692;-73.984;2023-07-13T14:23:41;12.95;;;7.88;;
81064;SDS011;70572;40.692;-73.984;2023-07-13T14:26:11;14.82;;;8.05;;
81064;SDS011;70572;40.692;-73.984;2023-07-13T14:28:39;17.60;;;9.07;;
81064;SDS011;70572;40.692;-73.984;2023-07-13T14:31:06;11.70;;;8.30;;
81064;SDS011;70572;40.692;-73.984;2023-07-13T14:33:33;12.45;;;8.25;;
81064;SDS011;70572;40.692;-73.984;2023-07-13T14:35:59;14.55;;;8.07;;
81064;SDS011;70572;40.692;-73.984;2023-07-13T14:38:26;12.85;;;8.63;;
81064;SDS011;70572;40.692;-73.984;2023-07-13T14:40:52;16.38;;;8.82;;
81064;SDS011;70572;40.692;-73.984;2023-07-13T14:43:19;11.00;;;7.32;;
81064;SDS011;70572;40.692;-73.984;2023-07-13T14:45:49;18.05;;;8.60;;
81064;SDS011;70572;40.692;-73.984;2023-07-13T14:48:17;14.38;;;7.93;;
81064;SDS011;70572;40.692;-73.984;2023-07-13T14:50:44;13.48;;;7.82;;
81064;SDS011;70572;40.692;-73.984;2023-07-13T14:53:12;10.90;;;7.55;;
81064;SDS011;70572;40.692;-73.984;2023-07-13T14:55:39;13.07;;;7.95;;
81064;SDS011;70572;40.692;-73.984;2023-07-13T14:58:06;11.07;;;7.68;;